Time;durP1;ratioP1;P1;durP2;ratioP2;P2;SDS_P1;SDS_P2;PMS_P1;PMS_P2;Temp;Humidity;BMP_temperature;BMP_pressure;BME280_temperature;BME280_humidity;BME280_pressure;Samples;Min_cycle;Max_cycle;Signal;HPM_P1;HPM_P2
2023/10/19 04:12:50;;;;;;;18.13;15.13;;;;;;;10.39;80.27;94956.44;5934482;23;20100;-82
2023/10/19 05:01:34;;;;;;;20.77;16.27;;;;;;;10.09;80.77;94924.09;5836498;23;20054;-81
2023/10/19 05:04:05;;;;;;;18.95;14.70;;;;;;;10.07;80.83;94913.09;4949886;29;20070;-81
2023/10/19 05:06:34;;;;;;;19.90;16.50;;;;;;;10.05;80.56;94907.31;4940992;29;20047;-81
2023/10/19 05:11:45;;;;;;;18.67;16.67;;;;;;;9.98;80.85;94906.59;5887855;23;20050;-81
2023/10/19 05:17:14;;;;;;;17.48;14.75;;;;;;;9.88;81.25;94901.94;4962334;29;20039;-81
2023/10/19 05:19:42;;;;;;;17.40;15.52;;;;;;;9.86;81.26;94909.16;4956668;29;20060;-81
2023/10/19 05:22:11;;;;;;;18.10;15.50;;;;;;;9.83;81.38;94899.16;4946653;29;20062;-82
2023/10/19 05:24:38;;;;;;;19.05;14.73;;;;;;;9.83;81.48;94904.38;4944682;29;20070;-81
2023/10/19 05:27:10;;;;;;;17.75;15.32;;;;;;;9.80;81.49;94904.81;4947277;29;20055;-81
2023/10/19 05:29:45;;;;;;;18.23;15.20;;;;;;;9.78;81.66;94909.44;4931657;29;20058;-82
2023/10/19 05:32:18;;;;;;;19.50;15.57;;;;;;;9.79;82.02;94908.44;4946532;29;20097;-81
2023/10/19 05:41:07;;;;;;;17.15;14.57;;;;;;;9.74;81.61;94908.28;5875530;23;20050;-81
2023/10/19 05:47:38;;;;;;;15.60;13.93;;;;;;;9.68;82.49;94919.56;5395220;23;20036;-81
2023/10/19 05:50:14;;;;;;;18.58;14.52;;;;;;;9.66;82.29;94916.38;4954262;29;20042;-81
2023/10/19 05:53:07;;;;;;;16.73;14.32;;;;;;;9.66;82.28;94919.00;4951709;29;20052;-80
2023/10/19 05:55:35;;;;;;;17.10;14.20;;;;;;;9.68;82.50;94917.75;4933539;29;20431;-81
2023/10/19 05:58:04;;;;;;;15.85;13.88;;;;;;;9.71;82.39;94921.75;4916865;29;20036;-81
2023/10/19 06:00:32;;;;;;;15.15;13.55;;;;;;;9.75;82.37;94919.50;4927787;29;20034;-81
2023/10/19 06:03:02;;;;;;;14.63;13.13;;;;;;;9.78;82.22;94917.25;4935821;29;20031;-81
2023/10/19 06:05:30;;;;;;;16.48;14.23;;;;;;;9.82;82.01;94920.25;4931282;29;20068;-80
2023/10/19 06:07:59;;;;;;;14.48;12.57;;;;;;;9.85;82.21;94917.97;4918204;29;20052;-81
2023/10/19 06:10:29;;;;;;;15.25;13.10;;;;;;;9.90;81.96;94925.94;4917335;29;20412;-81
2023/10/19 06:12:57;;;;;;;17.42;13.98;;;;;;;9.93;81.91;94916.91;4927164;29;20100;-81
2023/10/19 06:15:25;;;;;;;14.15;12.60;;;;;;;9.97;81.96;94925.06;4918829;29;20075;-81
2023/10/19 06:17:52;;;;;;;15.50;13.52;;;;;;;10.01;81.98;94931.41;4917095;29;20576;-80
2023/10/19 06:20:24;;;;;;;16.65;13.80;;;;;;;10.04;81.84;94936.22;4917118;29;20063;-80
2023/10/19 06:22:53;;;;;;;13.95;12.38;;;;;;;10.06;81.87;94945.38;4918319;29;20052;-80
2023/10/19 06:25:22;;;;;;;17.23;13.93;;;;;;;10.09;81.57;94939.72;4917186;29;20083;-79
2023/10/19 06:27:50;;;;;;;18.20;13.73;;;;;;;10.11;81.75;94948.13;4916242;29;20103;-80
2023/10/19 06:30:21;;;;;;;16.38;14.05;;;;;;;10.13;81.33;94950.53;4917749;29;20136;-80
2023/10/19 06:32:50;;;;;;;16.42;14.70;;;;;;;10.14;81.29;94956.53;4918755;29;20052;-81
2023/10/19 06:35:19;;;;;;;17.10;14.20;;;;;;;10.15;81.29;94953.69;4918448;29;20075;-81
2023/10/19 06:37:49;;;;;;;18.67;15.20;;;;;;;10.16;81.24;94939.66;4923551;29;20048;-80
2023/10/19 06:40:17;;;;;;;18.77;15.45;;;;;;;10.20;81.12;94942.63;4923835;29;20048;-81
2023/10/19 06:42:46;;;;;;;14.82;12.82;;;;;;;10.24;81.05;94949.78;4918574;29;20076;-80
2023/10/19 06:45:15;;;;;;;16.10;13.70;;;;;;;10.28;81.00;94937.91;4918938;29;20130;-80
2023/10/19 06:47:44;;;;;;;16.33;14.38;;;;;;;10.33;81.02;94939.09;4923209;29;20082;-80
2023/10/19 06:50:15;;;;;;;15.52;13.38;;;;;;;10.37;80.86;94935.81;4923065;29;20052;-80
2023/10/19 06:52:54;;;;;;;17.27;14.20;;;;;;;10.42;81.05;94938.53;4924134;29;20523;-81
2023/10/19 06:55:23;;;;;;;14.88;13.25;;;;;;;10.47;80.74;94930.06;4939033;29;20032;-81
2023/10/19 06:57:53;;;;;;;18.45;14.98;;;;;;;10.53;80.71;94918.75;4940552;29;20055;-80
2023/10/19 07:00:26;;;;;;;19.63;15.23;;;;;;;10.57;80.28;94922.50;4940933;29;20092;-83
2023/10/19 07:06:27;;;;;;;17.77;13.73;;;;;;;10.67;80.04;94920.16;5138248;27;1247484;-81
2023/10/19 07:08:56;;;;;;;19.20;15.13;;;;;;;10.71;80.03;94921.31;5194014;27;20041;-81
2023/10/19 07:11:24;;;;;;;20.00;15.77;;;;;;;10.79;80.10;94922.00;5207259;27;20132;-81
2023/10/19 07:13:52;;;;;;;19.52;15.40;;;;;;;10.83;79.98;94920.53;5200229;27;20074;-81
2023/10/19 07:16:20;;;;;;;20.55;16.65;;;;;;;10.89;80.02;94925.66;5197868;27;20038;-81
2023/10/19 07:18:47;;;;;;;19.33;16.08;;;;;;;10.94;79.73;94924.97;5212317;27;20062;-80
2023/10/19 07:21:17;;;;;;;22.27;17.77;;;;;;;10.99;79.41;94916.47;5201375;27;20046;-81
2023/10/19 07:23:49;;;;;;;22.35;16.60;;;;;;;11.01;79.21;94917.03;5178047;27;20042;-81
2023/10/19 07:26:16;;;;;;;18.17;15.50;;;;;;;11.03;79.14;94921.00;5181120;27;20137;-81
2023/10/19 07:28:44;;;;;;;19.38;15.65;;;;;;;11.06;79.18;94911.91;5178350;27;20409;-81
2023/10/19 07:31:15;;;;;;;19.67;15.93;;;;;;;11.09;79.01;94920.09;5175282;27;20042;-81
2023/10/19 07:33:45;;;;;;;17.45;14.70;;;;;;;11.14;78.90;94919.41;5175137;27;20039;-79
2023/10/19 07:36:15;;;;;;;19.02;15.23;;;;;;;11.21;79.02;94914.09;5178858;27;20118;-81
2023/10/19 07:38:43;;;;;;;17.67;14.38;;;;;;;11.30;78.85;94912.72;5192088;27;20064;-81
2023/10/19 07:41:13;;;;;;;17.40;14.40;;;;;;;11.37;78.70;94917.84;5197325;27;20142;-81
2023/10/19 07:43:40;;;;;;;15.93;13.65;;;;;;;11.44;78.70;94927.16;5201277;27;20141;-81
2023/10/19 07:46:08;;;;;;;17.33;14.18;;;;;;;11.50;78.51;94934.06;5189908;27;20044;-80
2023/10/19 07:48:36;;;;;;;17.73;14.50;;;;;;;11.53;78.54;94920.56;5175122;27;20118;-81
2023/10/19 07:51:04;;;;;;;18.95;15.30;;;;;;;11.56;78.35;94916.69;5195934;27;20052;-81
2023/10/19 07:53:32;;;;;;;18.73;13.93;;;;;;;11.60;78.32;94917.03;5184551;27;20042;-81
2023/10/19 07:56:00;;;;;;;25.25;16.17;;;;;;;11.62;78.42;94926.22;5200459;27;20057;-81
2023/10/19 07:58:30;;;;;;;22.50;15.45;;;;;;;11.65;78.42;94930.19;5196774;27;20034;-81
2023/10/19 08:00:58;;;;;;;23.02;15.63;;;;;;;11.67;78.57;94925.53;5186440;27;20497;-81
2023/10/19 08:03:25;;;;;;;21.33;15.93;;;;;;;11.70;78.64;94927.69;5196741;27;20081;-80
2023/10/19 08:05:54;;;;;;;19.83;15.68;;;;;;;11.72;78.64;94925.66;5195169;27;20065;-81
2023/10/19 08:08:24;;;;;;;18.30;15.48;;;;;;;11.74;78.66;94918.34;5197961;27;20042;-81
2023/10/19 08:10:52;;;;;;;17.42;15.05;;;;;;;11.79;78.90;94912.47;5200734;27;20045;-81
2023/10/19 08:13:19;;;;;;;16.08;13.95;;;;;;;11.82;79.24;94910.16;5202302;27;20067;-81
2023/10/19 08:15:48;;;;;;;18.35;14.63;;;;;;;11.84;78.96;94912.56;5190771;27;20092;-81
2023/10/19 08:18:17;;;;;;;20.92;15.20;;;;;;;11.85;78.79;94914.13;5166624;27;20046;-81
2023/10/19 08:20:46;;;;;;;19.58;14.75;;;;;;;11.85;78.71;94914.13;5177077;27;20044;-81
2023/10/19 08:23:16;;;;;;;17.75;14.25;;;;;;;11.84;78.88;94904.72;5186577;27;20469;-81
2023/10/19 08:25:44;;;;;;;16.60;13.65;;;;;;;11.86;79.10;94895.63;5174831;27;20051;-81
2023/10/19 08:28:23;;;;;;;22.90;13.40;;;;;;;11.91;79.16;94884.50;5162327;27;20129;-81
2023/10/19 08:31:00;;;;;;;17.23;14.52;;;;;;;11.93;79.66;94880.63;5180645;27;20053;-81
2023/10/19 08:33:29;;;;;;;16.55;13.75;;;;;;;11.98;79.75;94886.97;5199892;27;20050;-81
2023/10/19 08:35:59;;;;;;;17.65;14.88;;;;;;;12.02;79.84;94888.13;5189164;27;20065;-81
2023/10/19 08:38:28;;;;;;;15.50;13.75;;;;;;;12.04;79.88;94886.84;5181663;27;20038;-81
2023/10/19 08:40:56;;;;;;;18.70;15.05;;;;;;;12.09;80.12;94896.59;5178491;27;20098;-81
2023/10/19 08:43:25;;;;;;;18.45;14.93;;;;;;;12.12;80.07;94893.53;5169964;27;20047;-81
2023/10/19 08:45:55;;;;;;;18.70;15.50;;;;;;;12.16;80.43;94894.66;5164298;27;20042;-81
2023/10/19 08:48:23;;;;;;;20.05;15.98;;;;;;;12.22;80.04;94892.91;5179340;27;20038;-81
2023/10/19 08:50:52;;;;;;;20.08;15.57;;;;;;;12.26;80.14;94894.84;5186852;27;20049;-81
2023/10/19 08:53:23;;;;;;;20.58;16.48;;;;;;;12.29;80.11;94889.16;5183095;27;20478;-81
2023/10/19 08:55:54;;;;;;;19.17;16.25;;;;;;;12.33;80.11;94892.88;5183036;27;20564;-81
2023/10/19 08:58:22;;;;;;;17.27;14.85;;;;;;;12.40;80.07;94897.16;5179553;27;20046;-81
2023/10/19 09:00:53;;;;;;;19.13;15.43;;;;;;;12.43;79.86;94897.50;5178852;27;20054;-81
2023/10/19 09:03:24;;;;;;;17.33;14.30;;;;;;;12.48;79.97;94902.81;5178148;27;20042;-80
2023/10/19 09:05:53;;;;;;;18.33;13.35;;;;;;;12.51;79.93;94891.09;5179570;27;20416;-81
2023/10/19 09:08:22;;;;;;;17.42;13.07;;;;;;;12.53;79.81;94894.28;5178914;27;20141;-80
2023/10/19 09:10:52;;;;;;;15.65;12.43;;;;;;;12.57;79.77;94884.91;5176921;27;20054;-80
2023/10/19 09:13:22;;;;;;;14.90;12.10;;;;;;;12.60;79.92;94884.44;5176997;27;20046;-80
2023/10/19 09:15:53;;;;;;;14.23;11.63;;;;;;;12.65;79.97;94870.66;5176705;27;20493;-80
2023/10/19 09:18:24;;;;;;;12.70;10.63;;;;;;;12.71;80.02;94880.19;5177757;27;20054;-81
2023/10/19 09:21:02;;;;;;;12.48;10.35;;;;;;;12.77;79.77;94887.88;5177431;27;20050;-81
2023/10/19 09:23:30;;;;;;;12.40;9.95;;;;;;;12.83;79.72;94882.72;5193304;27;20050;-81
2023/10/19 09:26:00;;;;;;;10.68;8.90;;;;;;;12.91;79.68;94875.25;5197564;27;20508;-81
2023/10/19 09:28:28;;;;;;;14.13;9.70;;;;;;;12.98;79.55;94870.66;5192330;27;20070;-81
2023/10/19 09:30:56;;;;;;;11.05;9.35;;;;;;;13.06;79.87;94869.47;5181055;27;20050;-79
2023/10/19 09:33:27;;;;;;;11.98;9.40;;;;;;;13.17;79.78;94873.03;5177134;27;20093;-81
2023/10/19 09:35:56;;;;;;;12.48;10.63;;;;;;;13.30;79.43;94862.25;5174517;27;20043;-81
2023/10/19 09:38:24;;;;;;;12.88;10.50;;;;;;;13.45;79.25;94863.50;5176484;27;20555;-79
2023/10/19 09:40:54;;;;;;;16.30;11.10;;;;;;;13.63;78.58;94854.56;5178524;27;20077;-81
2023/10/19 09:43:31;;;;;;;10.60;9.48;;;;;;;13.75;78.16;94857.81;5177925;27;20050;-80
2023/10/19 09:46:01;;;;;;;12.15;10.70;;;;;;;13.81;77.90;94859.47;5176317;27;20046;-81
2023/10/19 09:48:35;;;;;;;10.43;9.32;;;;;;;13.88;77.60;94854.84;5177039;27;20042;-81
2023/10/19 09:51:04;;;;;;;12.52;10.27;;;;;;;13.96;77.60;94859.66;5180903;27;20129;-81
2023/10/19 09:53:32;;;;;;;13.93;11.85;;;;;;;14.09;77.12;94855.06;5183314;27;20539;-79
2023/10/19 09:56:00;;;;;;;13.02;10.85;;;;;;;14.34;76.38;94847.47;5177424;27;20073;-81
2023/10/19 09:58:31;;;;;;;12.82;10.88;;;;;;;14.59;75.56;94849.56;5176103;27;20046;-81
2023/10/19 10:00:59;;;;;;;11.82;10.60;;;;;;;14.82;74.69;94845.81;5179313;27;20047;-81
2023/10/19 10:03:48;;;;;;;11.30;9.95;;;;;;;15.02;73.94;94852.22;5184844;27;20050;-81
2023/10/19 10:06:20;;;;;;;11.98;9.50;;;;;;;15.14;73.23;94842.34;5182942;27;20042;-81
2023/10/19 10:08:49;;;;;;;10.77;8.67;;;;;;;15.25;72.71;94843.97;5184355;27;20110;-79
2023/10/19 10:11:19;;;;;;;10.13;8.45;;;;;;;15.42;72.30;94849.06;5177098;27;20515;-78
2023/10/19 10:13:50;;;;;;;10.63;8.20;;;;;;;15.64;71.79;94840.25;5181478;27;20057;-79
2023/10/19 10:16:20;;;;;;;10.60;8.95;;;;;;;15.85;70.97;94846.38;5187207;27;20030;-79
2023/10/19 10:18:51;;;;;;;9.77;8.60;;;;;;;15.95;70.42;94846.44;5183348;27;20082;-77
2023/10/19 10:21:21;;;;;;;9.70;8.30;;;;;;;16.00;70.19;94841.19;5188232;27;20541;-80
2023/10/19 10:23:50;;;;;;;12.13;9.88;;;;;;;15.94;70.39;94839.59;5198274;27;20109;-79
2023/10/19 10:26:36;;;;;;;12.10;10.10;;;;;;;15.86;70.14;94843.50;5196111;27;20050;-82
2023/10/19 10:29:19;;;;;;;10.35;9.35;;;;;;;15.76;70.64;94832.16;5162229;27;20061;-74
2023/10/19 10:31:49;;;;;;;13.85;10.10;;;;;;;15.66;70.65;94831.06;5167113;27;20050;-75
2023/10/19 10:34:49;;;;;;;15.30;11.38;;;;;;;15.57;70.48;94837.06;5154511;27;20074;-79
2023/10/19 10:37:16;;;;;;;14.90;12.50;;;;;;;15.43;70.89;94832.25;5156364;27;20042;-79
2023/10/19 10:39:48;;;;;;;15.43;12.52;;;;;;;15.32;71.36;94822.72;5173210;27;20079;-80
2023/10/19 10:42:18;;;;;;;;;;;;;;;15.25;71.58;94820.34;5175698;27;20027;-80
2023/10/19 10:44:55;;;;;;;19.63;14.05;;;;;;;15.15;71.93;94817.69;5160585;27;19950;-81
2023/10/19 10:51:27;;;;;;;15.88;12.68;;;;;;;14.96;73.14;94816.50;5158435;27;20051;-80
2023/10/19 11:01:31;;;;;;;18.90;15.07;;;;;;;14.74;73.80;94806.13;5609360;22;20056;-80
2023/10/19 11:04:14;;;;;;;17.75;14.95;;;;;;;14.71;73.93;94817.09;5054129;28;20291;-80
2023/10/19 11:06:55;;;;;;;20.10;15.45;;;;;;;14.69;74.24;94809.47;5055993;28;20076;-80
2023/10/19 11:09:32;;;;;;;14.82;13.27;;;;;;;14.72;74.06;94816.84;5055870;28;20034;-81
2023/10/19 11:33:49;;;;;;;20.15;16.63;;;;;;;14.86;72.85;94792.78;4988564;28;20178;-79
2023/10/19 11:36:22;;;;;;;22.38;16.80;;;;;;;14.79;73.11;94793.00;5037618;28;20050;-80
2023/10/19 11:48:31;;;;;;;23.27;15.32;;;;;;;14.63;73.97;94805.25;5486830;22;20272;-82
2023/10/19 11:54:56;;;;;;;21.35;16.88;;;;;;;14.60;74.50;94798.63;4992886;28;20042;-80
2023/10/19 11:57:27;;;;;;;17.00;14.85;;;;;;;14.60;74.25;94789.97;5305909;22;20065;-81
2023/10/19 12:06:18;;;;;;;19.15;15.73;;;;;;;14.57;75.18;94798.38;5236560;22;20072;-80
2023/10/19 12:14:38;;;;;;;22.65;15.18;;;;;;;14.47;75.90;94791.16;5229103;22;20068;-80
2023/10/19 12:17:07;;;;;;;;;;;;;;;14.50;75.58;94795.13;5041569;28;20037;-80
2023/10/19 12:19:47;;;;;;;24.70;17.77;;;;;;;14.48;75.94;94792.75;5041141;28;19937;-80
2023/10/19 12:46:35;;;;;;;25.80;19.55;;;;;;;14.51;79.23;94765.22;5052159;28;20571;-79
2023/10/19 12:49:14;;;;;;;21.00;17.38;;;;;;;14.54;78.93;94762.09;5036132;28;20136;-80
2023/10/19 12:55:37;;;;;;;21.52;17.75;;;;;;;14.59;79.53;94772.66;5035842;28;20044;-80
2023/10/19 12:58:08;;;;;;;22.38;18.73;;;;;;;14.60;78.92;94780.28;5034451;28;20132;-79
2023/10/19 13:00:40;;;;;;;20.70;18.50;;;;;;;14.60;78.81;94779.47;5034569;28;20054;-79
2023/10/19 13:03:13;;;;;;;21.80;19.30;;;;;;;14.63;79.60;94784.25;5034072;28;20275;-78
2023/10/19 13:05:42;;;;;;;22.17;18.77;;;;;;;14.68;79.90;94796.63;5033577;28;20123;-79
2023/10/19 13:08:13;;;;;;;25.70;21.63;;;;;;;14.72;79.87;94798.47;5034304;28;20049;-79
2023/10/19 13:10:43;;;;;;;26.83;21.77;;;;;;;14.73;80.38;94794.00;5034720;28;20048;-79
2023/10/19 13:13:13;;;;;;;24.10;19.63;;;;;;;14.72;80.43;94795.84;5034946;28;20119;-79
2023/10/19 13:15:42;;;;;;;27.73;20.70;;;;;;;14.74;80.72;94804.28;5034719;28;20050;-79
2023/10/19 13:18:19;;;;;;;22.73;19.80;;;;;;;14.76;80.72;94801.41;5034998;28;20129;-78
2023/10/19 13:20:48;;;;;;;23.63;20.58;;;;;;;14.74;80.78;94799.03;5034296;28;20157;-78
2023/10/19 13:23:16;;;;;;;26.98;19.83;;;;;;;14.76;80.81;94789.06;5033958;28;20053;-78
2023/10/19 13:25:50;;;;;;;22.33;18.50;;;;;;;14.76;81.32;94791.69;5033433;28;20046;-77
2023/10/19 13:28:18;;;;;;;23.52;18.50;;;;;;;14.79;81.35;94783.31;5033993;28;20045;-78
2023/10/19 13:30:48;;;;;;;22.75;18.70;;;;;;;14.80;81.66;94779.66;5034666;28;20140;-78
2023/10/19 13:33:18;;;;;;;21.45;18.35;;;;;;;14.80;81.92;94779.66;5034373;28;20049;-78
2023/10/19 13:35:47;;;;;;;26.75;19.05;;;;;;;14.80;82.24;94779.66;5034196;28;20042;-78
2023/10/19 13:38:17;;;;;;;23.00;18.38;;;;;;;14.81;82.98;94762.06;5034054;28;20073;-79
2023/10/19 13:40:45;;;;;;;23.35;18.63;;;;;;;14.79;83.07;94761.53;5033909;28;20140;-79
2023/10/19 13:43:14;;;;;;;22.40;17.10;;;;;;;14.79;83.66;94757.06;5033196;28;20050;-79
2023/10/19 13:45:43;;;;;;;17.50;15.05;;;;;;;14.80;83.98;94753.41;5033357;28;20085;-78
2023/10/19 13:48:12;;;;;;;18.52;15.07;;;;;;;14.82;84.44;94740.81;5033662;28;20516;-78
2023/10/19 13:50:47;;;;;;;18.65;14.40;;;;;;;14.83;85.25;94737.13;5032986;28;20568;-79
2023/10/19 13:53:16;;;;;;;16.55;13.68;;;;;;;14.86;84.88;94737.66;5033468;28;20132;-78
2023/10/19 13:55:45;;;;;;;15.45;12.93;;;;;;;14.83;84.04;94738.97;5032794;28;20049;-79
2023/10/19 13:58:13;;;;;;;15.57;12.48;;;;;;;14.83;84.22;94734.50;5033394;28;20049;-78
2023/10/19 14:00:43;;;;;;;13.60;12.20;;;;;;;14.83;83.22;94733.72;5052528;28;20080;-79
2023/10/19 14:03:13;;;;;;;14.60;12.13;;;;;;;14.84;83.81;94722.16;5052817;28;20107;-79
2023/10/19 14:05:47;;;;;;;14.70;12.18;;;;;;;14.88;85.35;94712.75;5050915;28;20068;-79
2023/10/19 14:08:16;;;;;;;12.63;11.05;;;;;;;14.91;85.12;94714.06;5035526;28;20073;-78
2023/10/19 14:10:45;;;;;;;13.50;10.95;;;;;;;14.92;85.33;94703.31;5033002;28;20081;-79
2023/10/19 14:13:14;;;;;;;12.25;10.98;;;;;;;14.94;85.60;94700.44;5032704;28;20092;-78
2023/10/19 14:15:42;;;;;;;12.63;10.40;;;;;;;14.95;85.88;94686.25;5032032;28;20531;-79
2023/10/19 14:18:10;;;;;;;15.23;10.85;;;;;;;14.97;86.26;94678.91;5032653;28;20075;-78
2023/10/19 14:20:40;;;;;;;11.93;9.32;;;;;;;14.98;85.77;94677.88;5032745;28;20050;-78
2023/10/19 14:23:10;;;;;;;11.23;8.75;;;;;;;15.00;85.48;94673.16;5033261;28;20440;-79
2023/10/19 14:25:39;;;;;;;9.75;7.80;;;;;;;15.00;85.61;94668.72;5035964;28;20050;-79
2023/10/19 14:28:07;;;;;;;8.50;7.70;;;;;;;14.99;84.36;94655.81;5033401;28;20563;-78
2023/10/19 14:30:35;;;;;;;10.32;9.27;;;;;;;14.99;85.00;94661.06;5033522;28;20061;-79
2023/10/19 14:33:04;;;;;;;12.75;11.30;;;;;;;14.99;85.24;94653.19;5032830;28;20081;-79
2023/10/19 14:35:32;;;;;;;15.48;12.82;;;;;;;15.00;84.82;94654.78;5032844;28;20136;-78
2023/10/19 14:38:00;;;;;;;15.73;13.38;;;;;;;15.02;84.87;94656.09;5032277;28;20053;-78
2023/10/19 14:40:30;;;;;;;15.88;13.13;;;;;;;15.04;84.58;94653.22;5032706;28;20057;-79
2023/10/19 14:42:58;;;;;;;16.60;13.30;;;;;;;15.06;84.30;94653.75;5029499;28;20065;-78
2023/10/19 14:45:28;;;;;;;15.18;12.02;;;;;;;15.07;84.09;94651.94;5012358;28;20053;-78
2023/10/19 14:47:58;;;;;;;15.68;12.68;;;;;;;15.07;84.33;94651.94;5013021;28;20041;-78
2023/10/19 14:50:30;;;;;;;15.05;12.38;;;;;;;15.07;84.07;94650.09;5012924;28;20049;-79
2023/10/19 14:52:58;;;;;;;16.10;13.27;;;;;;;15.04;84.08;94646.16;5016039;28;20527;-79
2023/10/19 14:55:27;;;;;;;17.67;13.32;;;;;;;15.02;84.46;94640.34;5032659;28;20054;-78
2023/10/19 14:57:56;;;;;;;19.25;14.15;;;;;;;14.99;84.41;94640.84;5032182;28;20049;-78
2023/10/19 15:00:32;;;;;;;19.30;15.50;;;;;;;14.96;84.25;94640.59;5036325;28;20132;-79
2023/10/19 15:03:06;;;;;;;20.90;16.58;;;;;;;14.93;84.50;94641.88;5053258;28;20076;-79
2023/10/19 15:05:36;;;;;;;17.48;15.23;;;;;;;14.90;84.47;94646.88;5048692;28;20045;-78
2023/10/19 15:08:09;;;;;;;16.67;14.57;;;;;;;14.88;84.70;94643.72;5033190;28;20104;-76
2023/10/19 15:10:41;;;;;;;16.90;13.93;;;;;;;14.81;84.12;94644.72;5032662;28;20417;-78
2023/10/19 15:13:10;;;;;;;14.90;13.25;;;;;;;14.77;84.26;94633.16;5032302;28;20048;-78
2023/10/19 15:15:38;;;;;;;14.43;12.70;;;;;;;14.73;84.16;94629.47;5031613;28;20421;-78
2023/10/19 15:18:06;;;;;;;15.80;13.32;;;;;;;14.70;84.04;94632.59;5032200;28;20416;-77
2023/10/19 15:20:35;;;;;;;18.83;15.15;;;;;;;14.68;84.34;94633.91;5044150;28;20049;-78
2023/10/19 15:23:03;;;;;;;19.23;15.38;;;;;;;14.66;84.67;94626.28;5045311;28;20524;-78
2023/10/19 15:25:31;;;;;;;18.38;15.73;;;;;;;14.65;84.86;94623.91;5042479;28;20049;-78
2023/10/19 15:27:59;;;;;;;21.08;15.40;;;;;;;14.61;84.52;94619.19;5036673;28;20076;-78
2023/10/19 15:30:28;;;;;;;20.30;16.13;;;;;;;14.61;85.17;94618.41;5036540;28;20089;-78
2023/10/19 15:32:56;;;;;;;19.42;14.90;;;;;;;14.60;85.13;94611.56;5037825;28;20143;-77
2023/10/19 15:35:24;;;;;;;18.98;14.90;;;;;;;14.60;85.20;94611.56;5036340;28;20107;-77
2023/10/19 15:37:55;;;;;;;26.27;15.35;;;;;;;14.58;85.34;94608.41;5035438;28;20064;-78
2023/10/19 15:40:24;;;;;;;17.50;15.30;;;;;;;14.58;85.29;94606.59;5036075;28;20136;-79
2023/10/19 15:42:54;;;;;;;20.65;15.45;;;;;;;14.57;85.28;94602.38;5036258;28;20049;-78
2023/10/19 15:45:22;;;;;;;18.95;15.02;;;;;;;14.57;85.21;94602.38;5035409;28;20060;-79
2023/10/19 15:47:53;;;;;;;18.95;15.27;;;;;;;14.56;85.44;94605.25;5035813;28;20061;-79
2023/10/19 15:50:21;;;;;;;18.55;15.40;;;;;;;14.54;85.32;94602.06;5035593;28;20045;-78
2023/10/19 15:52:51;;;;;;;18.80;15.73;;;;;;;14.51;85.34;94597.31;5035713;28;20095;-79
2023/10/19 15:55:21;;;;;;;21.90;16.38;;;;;;;14.49;85.21;94589.69;5036606;28;20501;-79
2023/10/19 15:57:50;;;;;;;25.95;18.05;;;;;;;14.48;85.52;94582.88;5036308;28;20053;-78
2023/10/19 16:00:19;;;;;;;23.50;17.85;;;;;;;14.48;85.53;94589.97;5036091;28;20099;-79
2023/10/19 16:02:54;;;;;;;21.35;16.88;;;;;;;14.46;85.40;94578.94;5035195;28;20049;-78
2023/10/19 16:05:22;;;;;;;21.23;17.25;;;;;;;14.43;84.96;94575.78;5034894;28;20123;-78
2023/10/19 16:07:50;;;;;;;25.73;18.95;;;;;;;14.38;85.02;94567.88;5037063;28;20050;-79
2023/10/19 16:10:19;;;;;;;25.15;18.98;;;;;;;14.35;85.25;94563.16;5037617;28;20071;-79
2023/10/19 16:12:47;;;;;;;24.17;18.73;;;;;;;14.32;85.39;94568.91;5035973;28;20107;-78
2023/10/19 16:15:16;;;;;;;22.52;18.65;;;;;;;14.29;85.34;94574.66;5049387;28;20049;-79
2023/10/19 16:17:45;;;;;;;24.13;18.73;;;;;;;14.27;85.24;94571.50;5036220;28;20049;-78
2023/10/19 16:20:15;;;;;;;30.15;20.42;;;;;;;14.24;85.43;94572.00;5035143;28;20057;-79
2023/10/19 16:22:43;;;;;;;30.23;20.30;;;;;;;14.21;85.40;94568.06;5036522;28;20057;-78
2023/10/19 16:25:12;;;;;;;25.00;21.27;;;;;;;14.18;85.41;94559.91;5036248;28;20493;-78
2023/10/19 16:27:40;;;;;;;24.40;19.77;;;;;;;14.16;85.50;94556.75;5036383;28;20046;-78
2023/10/19 16:30:12;;;;;;;24.80;20.48;;;;;;;14.12;85.63;94558.31;5036017;28;20049;-78
2023/10/19 16:32:41;;;;;;;25.40;20.45;;;;;;;14.09;85.69;94551.75;5036277;28;20057;-78
2023/10/19 16:35:09;;;;;;;24.45;20.52;;;;;;;14.08;86.04;94549.34;5035207;28;20057;-78
2023/10/19 16:37:39;;;;;;;24.75;20.67;;;;;;;14.06;85.90;94554.06;5034743;28;20145;-79
2023/10/19 16:40:07;;;;;;;27.17;20.58;;;;;;;14.04;85.87;94550.91;5035063;28;20057;-78
2023/10/19 16:42:37;;;;;;;29.95;21.13;;;;;;;14.01;86.04;94547.78;5034556;28;20049;-78
2023/10/19 16:45:06;;;;;;;27.42;21.20;;;;;;;13.99;86.00;94549.84;5034635;28;20485;-76
2023/10/19 16:47:34;;;;;;;28.73;20.08;;;;;;;13.97;86.25;94565.03;5015838;28;20061;-79
2023/10/19 16:50:07;;;;;;;24.02;20.38;;;;;;;13.93;86.25;94566.59;5031217;28;20049;-78
2023/10/19 16:52:34;;;;;;;25.60;18.98;;;;;;;13.92;86.41;94570.22;5034816;28;20114;-78
2023/10/19 16:55:05;;;;;;;26.88;20.00;;;;;;;13.89;86.52;94570.75;5034590;28;20596;-79
2023/10/19 16:57:34;;;;;;;24.10;20.85;;;;;;;13.86;86.37;94570.47;5034391;28;20091;-79
2023/10/19 17:00:01;;;;;;;26.42;20.20;;;;;;;13.81;86.61;94579.06;5034085;28;20132;-78
2023/10/19 17:02:32;;;;;;;28.08;20.55;;;;;;;13.80;86.75;94572.25;5032385;28;20053;-77
2023/10/19 17:05:00;;;;;;;24.77;19.27;;;;;;;13.77;86.65;94570.13;5033498;28;20049;-77
2023/10/19 17:07:28;;;;;;;23.73;19.00;;;;;;;13.73;86.64;94574.28;5033537;28;20050;-79
2023/10/19 17:09:56;;;;;;;25.95;18.60;;;;;;;13.73;86.82;94569.06;5033602;28;20046;-78
2023/10/19 17:12:25;;;;;;;20.02;17.02;;;;;;;13.73;86.84;94574.28;5034260;28;20060;-78
2023/10/19 17:14:53;;;;;;;20.88;17.77;;;;;;;13.71;86.70;94579.00;5033607;28;20095;-78
2023/10/19 17:17:20;;;;;;;21.40;17.63;;;;;;;13.70;86.73;94582.66;5033571;28;20501;-78
2023/10/19 17:19:48;;;;;;;19.38;15.57;;;;;;;13.70;86.68;94566.94;5034441;28;20045;-78
2023/10/19 17:22:15;;;;;;;17.65;15.85;;;;;;;13.70;86.55;94572.97;5033534;28;20103;-78
2023/10/19 17:24:44;;;;;;;19.27;16.40;;;;;;;13.71;86.55;94579.00;5033410;28;20097;-78
2023/10/19 17:27:12;;;;;;;20.08;16.90;;;;;;;13.70;86.38;94583.44;5034170;28;20128;-79
2023/10/19 17:29:42;;;;;;;19.05;16.80;;;;;;;13.70;86.35;94586.06;5033367;28;20067;-78
2023/10/19 17:32:11;;;;;;;20.02;15.38;;;;;;;13.69;86.43;94575.84;5033571;28;20053;-78
2023/10/19 17:34:38;;;;;;;24.60;17.52;;;;;;;13.69;86.30;94560.91;5032997;28;20574;-77
2023/10/19 17:37:06;;;;;;;24.48;17.55;;;;;;;13.67;86.30;94563.00;5033282;28;20045;-78
2023/10/19 17:39:34;;;;;;;22.88;16.67;;;;;;;13.65;86.29;94556.44;5033493;28;20413;-78
2023/10/19 17:42:02;;;;;;;21.73;16.98;;;;;;;13.65;86.46;94561.69;5033126;28;20045;-78
2023/10/19 17:44:30;;;;;;;23.08;17.52;;;;;;;13.64;86.44;94560.06;5033168;28;20111;-78
2023/10/19 17:46:59;;;;;;;25.52;16.52;;;;;;;13.62;86.45;94556.91;5033461;28;20087;-78
2023/10/19 17:49:28;;;;;;;22.20;16.80;;;;;;;13.59;86.19;94551.13;5032008;28;20048;-78
2023/10/19 17:51:56;;;;;;;20.23;15.90;;;;;;;13.59;86.19;94556.38;5033270;28;20056;-78
2023/10/19 17:54:23;;;;;;;22.80;16.17;;;;;;;13.59;86.25;94556.38;5032846;28;20063;-78
2023/10/19 17:56:51;;;;;;;24.13;17.40;;;;;;;13.59;86.09;94552.97;5033365;28;20077;-80
2023/10/19 17:59:19;;;;;;;23.30;16.55;;;;;;;13.58;86.25;94549.56;5034481;28;20131;-79
2023/10/19 18:01:47;;;;;;;23.83;17.20;;;;;;;13.58;86.34;94536.47;5033071;28;20124;-79
2023/10/19 18:04:17;;;;;;;20.10;16.45;;;;;;;13.57;86.09;94524.41;5032892;28;20049;-79
2023/10/19 18:06:46;;;;;;;18.63;16.33;;;;;;;13.57;85.95;94519.16;5033593;28;20056;-80
2023/10/19 18:09:14;;;;;;;18.95;16.15;;;;;;;13.56;85.94;94509.75;5032887;28;20045;-80
2023/10/19 18:11:41;;;;;;;19.35;16.73;;;;;;;13.53;85.78;94506.81;5033016;28;20133;-79
2023/10/19 18:14:09;;;;;;;18.38;15.23;;;;;;;13.51;86.00;94517.56;5032766;28;20457;-79
2023/10/19 18:16:37;;;;;;;17.38;15.48;;;;;;;13.50;85.88;94505.50;5040443;28;20037;-80